sensor_id;sensor_type;location;lat;lon;timestamp;P1;durP1;ratioP1;P2;durP2;ratioP2
5961;SDS011;3007;50.770;0.250;2023-07-13T00:02:21;14.70;;;3.90;;
5961;SDS011;3007;50.770;0.250;2023-07-13T00:04:48;15.02;;;3.65;;
5961;SDS011;3007;50.770;0.250;2023-07-13T00:07:16;12.05;;;3.45;;
5961;SDS011;3007;50.770;0.250;2023-07-13T00:09:45;18.67;;;3.78;;
5961;SDS011;3007;50.770;0.250;2023-07-13T00:12:22;18.60;;;3.88;;
5961;SDS011;3007;50.770;0.250;2023-07-13T00:14:50;22.07;;;4.67;;
5961;SDS011;3007;50.770;0.250;2023-07-13T00:17:17;15.97;;;3.93;;
5961;SDS011;3007;50.770;0.250;2023-07-13T00:19:44;20.58;;;3.90;;
5961;SDS011;3007;50.770;0.250;2023-07-13T00:22:11;16.38;;;4.57;;
5961;SDS011;3007;50.770;0.250;2023-07-13T00:24:40;15.47;;;3.90;;
5961;SDS011;3007;50.770;0.250;2023-07-13T00:27:07;15.70;;;4.27;;
5961;SDS011;3007;50.770;0.250;2023-07-13T00:29:34;18.70;;;4.63;;
5961;SDS011;3007;50.770;0.250;2023-07-13T00:32:05;27.53;;;4.70;;
5961;SDS011;3007;50.770;0.250;2023-07-13T00:34:34;17.83;;;3.90;;
5961;SDS011;3007;50.770;0.250;2023-07-13T00:37:01;15.93;;;3.60;;
5961;SDS011;3007;50.770;0.250;2023-07-13T00:39:28;17.55;;;4.85;;
5961;SDS011;3007;50.770;0.250;2023-07-13T00:41:56;17.33;;;3.70;;
5961;SDS011;3007;50.770;0.250;2023-07-13T00:44:23;9.65;;;3.40;;
5961;SDS011;3007;50.770;0.250;2023-07-13T00:46:50;16.13;;;4.05;;
5961;SDS011;3007;50.770;0.250;2023-07-13T00:49:18;19.48;;;4.63;;
5961;SDS011;3007;50.770;0.250;2023-07-13T00:51:48;13.63;;;3.50;;
5961;SDS011;3007;50.770;0.250;2023-07-13T00:54:17;17.03;;;3.60;;
5961;SDS011;3007;50.770;0.250;2023-07-13T00:56:48;17.45;;;3.28;;
5961;SDS011;3007;50.770;0.250;2023-07-13T00:59:19;14.73;;;3.33;;
5961;SDS011;3007;50.770;0.250;2023-07-13T01:01:47;12.97;;;3.37;;
5961;SDS011;3007;50.770;0.250;2023-07-13T01:04:14;11.67;;;3.63;;
5961;SDS011;3007;50.770;0.250;2023-07-13T01:06:41;11.63;;;3.40;;
5961;SDS011;3007;50.770;0.250;2023-07-13T01:09:10;15.98;;;3.97;;
5961;SDS011;3007;50.770;0.250;2023-07-13T01:11:38;13.50;;;3.80;;
5961;SDS011;3007;50.770;0.250;2023-07-13T01:14:06;14.57;;;3.67;;
5961;SDS011;3007;50.770;0.250;2023-07-13T01:16:35;19.07;;;4.10;;
5961;SDS011;3007;50.770;0.250;2023-07-13T01:19:05;10.37;;;3.83;;
5961;SDS011;3007;50.770;0.250;2023-07-13T01:21:40;11.37;;;3.43;;
5961;SDS011;3007;50.770;0.250;2023-07-13T01:24:08;12.20;;;3.47;;
5961;SDS011;3007;50.770;0.250;2023-07-13T01:26:35;14.40;;;3.78;;
5961;SDS011;3007;50.770;0.250;2023-07-13T01:29:02;11.33;;;3.53;;
5961;SDS011;3007;50.770;0.250;2023-07-13T01:31:29;8.83;;;3.00;;
5961;SDS011;3007;50.770;0.250;2023-07-13T01:33:56;14.90;;;3.77;;
5961;SDS011;3007;50.770;0.250;2023-07-13T01:36:23;15.13;;;3.50;;
5961;SDS011;3007;50.770;0.250;2023-07-13T01:38:51;8.90;;;3.30;;
5961;SDS011;3007;50.770;0.250;2023-07-13T01:41:18;12.17;;;3.27;;
5961;SDS011;3007;50.770;0.250;2023-07-13T01:43:45;12.77;;;3.33;;
5961;SDS011;3007;50.770;0.250;2023-07-13T01:46:12;10.63;;;3.20;;
5961;SDS011;3007;50.770;0.250;2023-07-13T01:48:39;14.13;;;3.97;;
5961;SDS011;3007;50.770;0.250;2023-07-13T01:51:06;10.77;;;2.77;;
5961;SDS011;3007;50.770;0.250;2023-07-13T01:53:33;10.17;;;3.20;;
5961;SDS011;3007;50.770;0.250;2023-07-13T01:56:01;12.57;;;3.13;;
5961;SDS011;3007;50.770;0.250;2023-07-13T01:58:28;11.93;;;3.17;;
5961;SDS011;3007;50.770;0.250;2023-07-13T02:00:55;8.83;;;2.77;;
5961;SDS011;3007;50.770;0.250;2023-07-13T02:03:21;9.67;;;3.03;;
5961;SDS011;3007;50.770;0.250;2023-07-13T02:05:48;8.63;;;2.60;;
5961;SDS011;3007;50.770;0.250;2023-07-13T02:08:15;9.07;;;2.83;;
5961;SDS011;3007;50.770;0.250;2023-07-13T02:10:42;11.27;;;2.80;;
5961;SDS011;3007;50.770;0.250;2023-07-13T02:13:10;8.87;;;3.03;;
5961;SDS011;3007;50.770;0.250;2023-07-13T02:15:38;9.40;;;3.00;;
5961;SDS011;3007;50.770;0.250;2023-07-13T02:18:06;10.63;;;2.50;;
5961;SDS011;3007;50.770;0.250;2023-07-13T02:20:33;8.83;;;2.83;;
5961;SDS011;3007;50.770;0.250;2023-07-13T02:23:00;9.23;;;2.50;;
5961;SDS011;3007;50.770;0.250;2023-07-13T02:25:27;5.77;;;2.30;;
5961;SDS011;3007;50.770;0.250;2023-07-13T02:27:54;11.73;;;3.17;;
5961;SDS011;3007;50.770;0.250;2023-07-13T02:30:22;6.37;;;2.50;;
5961;SDS011;3007;50.770;0.250;2023-07-13T02:32:49;6.10;;;2.67;;
5961;SDS011;3007;50.770;0.250;2023-07-13T02:35:16;8.23;;;2.77;;
5961;SDS011;3007;50.770;0.250;2023-07-13T02:37:43;8.20;;;2.90;;
5961;SDS011;3007;50.770;0.250;2023-07-13T02:40:10;5.53;;;2.30;;
5961;SDS011;3007;50.770;0.250;2023-07-13T02:42:37;5.87;;;2.70;;
5961;SDS011;3007;50.770;0.250;2023-07-13T02:45:05;8.37;;;2.53;;
5961;SDS011;3007;50.770;0.250;2023-07-13T02:47:34;6.33;;;2.20;;
5961;SDS011;3007;50.770;0.250;2023-07-13T02:50:02;8.63;;;2.30;;
5961;SDS011;3007;50.770;0.250;2023-07-13T02:52:29;8.90;;;2.77;;
5961;SDS011;3007;50.770;0.250;2023-07-13T02:54:56;4.43;;;2.10;;
5961;SDS011;3007;50.770;0.250;2023-07-13T02:57:23;6.07;;;2.20;;
5961;SDS011;3007;50.770;0.250;2023-07-13T02:59:50;6.10;;;1.87;;
5961;SDS011;3007;50.770;0.250;2023-07-13T03:02:16;6.27;;;2.10;;
5961;SDS011;3007;50.770;0.250;2023-07-13T03:04:45;5.70;;;2.40;;
5961;SDS011;3007;50.770;0.250;2023-07-13T03:07:11;6.50;;;2.37;;
5961;SDS011;3007;50.770;0.250;2023-07-13T03:09:39;5.27;;;2.30;;
5961;SDS011;3007;50.770;0.250;2023-07-13T03:12:06;12.07;;;3.00;;
5961;SDS011;3007;50.770;0.250;2023-07-13T03:14:33;9.13;;;2.60;;
5961;SDS011;3007;50.770;0.250;2023-07-13T03:17:00;7.00;;;2.30;;
5961;SDS011;3007;50.770;0.250;2023-07-13T03:19:27;5.00;;;2.13;;
5961;SDS011;3007;50.770;0.250;2023-07-13T03:21:56;6.37;;;2.03;;
5961;SDS011;3007;50.770;0.250;2023-07-13T03:24:23;4.83;;;2.33;;
5961;SDS011;3007;50.770;0.250;2023-07-13T03:26:51;5.73;;;2.47;;
5961;SDS011;3007;50.770;0.250;2023-07-13T03:29:18;7.97;;;2.53;;
5961;SDS011;3007;50.770;0.250;2023-07-13T03:31:44;4.43;;;2.03;;
5961;SDS011;3007;50.770;0.250;2023-07-13T03:34:11;6.47;;;2.70;;
5961;SDS011;3007;50.770;0.250;2023-07-13T03:36:38;7.33;;;2.77;;
5961;SDS011;3007;50.770;0.250;2023-07-13T03:39:06;6.30;;;2.50;;
5961;SDS011;3007;50.770;0.250;2023-07-13T03:41:35;10.23;;;2.93;;
5961;SDS011;3007;50.770;0.250;2023-07-13T03:44:02;9.50;;;3.07;;
5961;SDS011;3007;50.770;0.250;2023-07-13T03:46:29;9.63;;;2.83;;
5961;SDS011;3007;50.770;0.250;2023-07-13T03:48:56;10.03;;;2.97;;
5961;SDS011;3007;50.770;0.250;2023-07-13T03:51:23;3.97;;;2.40;;
5961;SDS011;3007;50.770;0.250;2023-07-13T03:53:50;11.63;;;2.73;;
5961;SDS011;3007;50.770;0.250;2023-07-13T03:56:19;7.87;;;2.47;;
5961;SDS011;3007;50.770;0.250;2023-07-13T03:58:46;4.80;;;1.93;;
5961;SDS011;3007;50.770;0.250;2023-07-13T04:01:14;7.67;;;2.60;;
5961;SDS011;3007;50.770;0.250;2023-07-13T04:03:42;9.27;;;2.80;;
5961;SDS011;3007;50.770;0.250;2023-07-13T04:06:13;5.10;;;2.13;;
5961;SDS011;3007;50.770;0.250;2023-07-13T04:08:45;5.07;;;2.33;;
5961;SDS011;3007;50.770;0.250;2023-07-13T04:11:14;7.07;;;2.40;;
5961;SDS011;3007;50.770;0.250;2023-07-13T04:13:42;5.37;;;2.47;;
5961;SDS011;3007;50.770;0.250;2023-07-13T04:16:09;6.70;;;2.47;;
5961;SDS011;3007;50.770;0.250;2023-07-13T04:18:36;8.23;;;2.80;;
5961;SDS011;3007;50.770;0.250;2023-07-13T04:21:03;6.83;;;1.80;;
5961;SDS011;3007;50.770;0.250;2023-07-13T04:23:30;6.40;;;2.27;;
5961;SDS011;3007;50.770;0.250;2023-07-13T04:25:57;8.40;;;2.53;;
5961;SDS011;3007;50.770;0.250;2023-07-13T04:28:24;8.17;;;2.23;;
5961;SDS011;3007;50.770;0.250;2023-07-13T04:30:53;4.30;;;1.90;;
5961;SDS011;3007;50.770;0.250;2023-07-13T04:33:20;7.90;;;2.30;;
5961;SDS011;3007;50.770;0.250;2023-07-13T04:35:51;7.93;;;2.20;;
5961;SDS011;3007;50.770;0.250;2023-07-13T04:38:21;9.47;;;2.27;;
5961;SDS011;3007;50.770;0.250;2023-07-13T04:40:49;10.47;;;3.10;;
5961;SDS011;3007;50.770;0.250;2023-07-13T04:43:16;11.00;;;3.67;;
5961;SDS011;3007;50.770;0.250;2023-07-13T04:45:43;10.23;;;2.60;;
5961;SDS011;3007;50.770;0.250;2023-07-13T04:48:11;12.93;;;3.13;;
5961;SDS011;3007;50.770;0.250;2023-07-13T04:50:38;15.45;;;4.32;;
5961;SDS011;3007;50.770;0.250;2023-07-13T04:53:06;21.03;;;4.37;;
5961;SDS011;3007;50.770;0.250;2023-07-13T04:55:32;12.40;;;3.20;;
5961;SDS011;3007;50.770;0.250;2023-07-13T04:57:59;12.23;;;3.13;;
5961;SDS011;3007;50.770;0.250;2023-07-13T05:00:27;13.10;;;3.05;;
5961;SDS011;3007;50.770;0.250;2023-07-13T05:02:56;10.32;;;3.00;;
5961;SDS011;3007;50.770;0.250;2023-07-13T05:05:25;9.93;;;3.28;;
5961;SDS011;3007;50.770;0.250;2023-07-13T05:07:53;8.77;;;2.75;;
5961;SDS011;3007;50.770;0.250;2023-07-13T05:10:20;6.25;;;2.50;;
5961;SDS011;3007;50.770;0.250;2023-07-13T05:12:47;6.22;;;2.15;;
5961;SDS011;3007;50.770;0.250;2023-07-13T05:15:14;6.28;;;2.60;;
5961;SDS011;3007;50.770;0.250;2023-07-13T05:17:45;6.53;;;2.22;;
5961;SDS011;3007;50.770;0.250;2023-07-13T05:20:12;6.03;;;1.70;;
5961;SDS011;3007;50.770;0.250;2023-07-13T05:22:41;7.90;;;2.58;;
5961;SDS011;3007;50.770;0.250;2023-07-13T05:25:08;5.47;;;2.17;;
5961;SDS011;3007;50.770;0.250;2023-07-13T05:27:35;2.85;;;2.05;;
5961;SDS011;3007;50.770;0.250;2023-07-13T05:30:02;7.82;;;2.80;;
5961;SDS011;3007;50.770;0.250;2023-07-13T05:32:30;7.18;;;2.40;;
5961;SDS011;3007;50.770;0.250;2023-07-13T05:34:57;6.45;;;2.30;;
5961;SDS011;3007;50.770;0.250;2023-07-13T05:37:24;11.20;;;2.78;;
5961;SDS011;3007;50.770;0.250;2023-07-13T05:39:52;6.32;;;2.38;;
5961;SDS011;3007;50.770;0.250;2023-07-13T05:42:19;8.73;;;2.05;;
5961;SDS011;3007;50.770;0.250;2023-07-13T05:44:46;4.97;;;2.03;;
5961;SDS011;3007;50.770;0.250;2023-07-13T05:47:13;8.98;;;2.03;;
5961;SDS011;3007;50.770;0.250;2023-07-13T05:49:40;7.90;;;2.05;;
5961;SDS011;3007;50.770;0.250;2023-07-13T05:52:07;6.22;;;2.42;;
5961;SDS011;3007;50.770;0.250;2023-07-13T05:54:34;6.88;;;2.00;;
5961;SDS011;3007;50.770;0.250;2023-07-13T05:57:03;13.10;;;3.00;;
5961;SDS011;3007;50.770;0.250;2023-07-13T05:59:30;8.52;;;2.47;;
5961;SDS011;3007;50.770;0.250;2023-07-13T06:01:57;9.90;;;3.00;;
5961;SDS011;3007;50.770;0.250;2023-07-13T06:04:24;6.90;;;2.13;;
5961;SDS011;3007;50.770;0.250;2023-07-13T06:06:51;10.75;;;2.63;;
5961;SDS011;3007;50.770;0.250;2023-07-13T06:09:17;9.82;;;2.63;;
5961;SDS011;3007;50.770;0.250;2023-07-13T06:11:44;9.27;;;2.53;;
5961;SDS011;3007;50.770;0.250;2023-07-13T06:14:12;14.57;;;3.88;;
5961;SDS011;3007;50.770;0.250;2023-07-13T06:16:39;12.25;;;2.70;;
5961;SDS011;3007;50.770;0.250;2023-07-13T06:19:07;11.52;;;3.03;;
5961;SDS011;3007;50.770;0.250;2023-07-13T06:21:34;12.68;;;3.10;;
5961;SDS011;3007;50.770;0.250;2023-07-13T06:24:00;11.35;;;3.17;;
5961;SDS011;3007;50.770;0.250;2023-07-13T06:26:27;9.65;;;3.08;;
5961;SDS011;3007;50.770;0.250;2023-07-13T06:28:54;8.55;;;2.47;;
5961;SDS011;3007;50.770;0.250;2023-07-13T06:31:22;14.18;;;2.60;;
5961;SDS011;3007;50.770;0.250;2023-07-13T06:33:49;14.15;;;3.70;;
5961;SDS011;3007;50.770;0.250;2023-07-13T06:36:16;10.70;;;2.80;;
5961;SDS011;3007;50.770;0.250;2023-07-13T06:38:43;14.57;;;3.00;;
5961;SDS011;3007;50.770;0.250;2023-07-13T06:41:10;9.30;;;2.92;;
5961;SDS011;3007;50.770;0.250;2023-07-13T06:43:37;6.97;;;2.67;;
5961;SDS011;3007;50.770;0.250;2023-07-13T06:46:04;11.05;;;2.75;;
5961;SDS011;3007;50.770;0.250;2023-07-13T06:48:32;11.45;;;2.78;;
5961;SDS011;3007;50.770;0.250;2023-07-13T06:50:59;11.15;;;3.08;;
5961;SDS011;3007;50.770;0.250;2023-07-13T06:53:27;15.38;;;3.15;;
5961;SDS011;3007;50.770;0.250;2023-07-13T06:55:54;9.63;;;2.90;;
5961;SDS011;3007;50.770;0.250;2023-07-13T06:58:21;6.72;;;2.08;;
5961;SDS011;3007;50.770;0.250;2023-07-13T07:00:50;7.85;;;3.00;;
5961;SDS011;3007;50.770;0.250;2023-07-13T07:03:17;14.38;;;3.13;;
5961;SDS011;3007;50.770;0.250;2023-07-13T07:05:45;11.10;;;3.13;;
5961;SDS011;3007;50.770;0.250;2023-07-13T07:08:12;11.32;;;2.53;;
5961;SDS011;3007;50.770;0.250;2023-07-13T07:10:40;10.63;;;2.70;;
5961;SDS011;3007;50.770;0.250;2023-07-13T07:13:07;10.10;;;2.45;;
5961;SDS011;3007;50.770;0.250;2023-07-13T07:15:34;9.60;;;2.72;;
5961;SDS011;3007;50.770;0.250;2023-07-13T07:18:01;8.02;;;2.30;;
5961;SDS011;3007;50.770;0.250;2023-07-13T07:20:28;7.70;;;2.70;;
5961;SDS011;3007;50.770;0.250;2023-07-13T07:22:57;8.70;;;2.90;;
5961;SDS011;3007;50.770;0.250;2023-07-13T07:25:24;12.05;;;2.67;;
5961;SDS011;3007;50.770;0.250;2023-07-13T07:27:50;13.40;;;3.53;;
5961;SDS011;3007;50.770;0.250;2023-07-13T07:30:17;12.32;;;2.60;;
5961;SDS011;3007;50.770;0.250;2023-07-13T07:32:44;12.82;;;2.72;;
5961;SDS011;3007;50.770;0.250;2023-07-13T07:35:11;10.73;;;2.60;;
5961;SDS011;3007;50.770;0.250;2023-07-13T07:37:38;7.78;;;2.30;;
5961;SDS011;3007;50.770;0.250;2023-07-13T07:40:07;12.05;;;3.13;;
5961;SDS011;3007;50.770;0.250;2023-07-13T07:42:34;11.02;;;2.88;;
5961;SDS011;3007;50.770;0.250;2023-07-13T07:45:01;9.30;;;3.05;;
5961;SDS011;3007;50.770;0.250;2023-07-13T07:47:28;10.93;;;2.80;;
5961;SDS011;3007;50.770;0.250;2023-07-13T07:49:55;11.20;;;2.80;;
5961;SDS011;3007;50.770;0.250;2023-07-13T07:52:21;11.50;;;2.90;;
5961;SDS011;3007;50.770;0.250;2023-07-13T07:54:48;8.52;;;2.58;;
5961;SDS011;3007;50.770;0.250;2023-07-13T07:57:17;8.25;;;2.30;;
5961;SDS011;3007;50.770;0.250;2023-07-13T07:59:47;11.90;;;3.00;;
5961;SDS011;3007;50.770;0.250;2023-07-13T08:02:14;12.30;;;2.75;;
5961;SDS011;3007;50.770;0.250;2023-07-13T08:04:41;14.50;;;3.22;;
5961;SDS011;3007;50.770;0.250;2023-07-13T08:07:08;10.50;;;2.92;;
5961;SDS011;3007;50.770;0.250;2023-07-13T08:09:35;10.20;;;2.80;;
5961;SDS011;3007;50.770;0.250;2023-07-13T08:12:02;11.23;;;2.88;;
5961;SDS011;3007;50.770;0.250;2023-07-13T08:14:32;9.52;;;3.05;;
5961;SDS011;3007;50.770;0.250;2023-07-13T08:16:59;10.73;;;2.92;;
5961;SDS011;3007;50.770;0.250;2023-07-13T08:19:25;12.00;;;2.95;;
5961;SDS011;3007;50.770;0.250;2023-07-13T08:21:52;12.07;;;3.65;;
5961;SDS011;3007;50.770;0.250;2023-07-13T08:24:21;10.52;;;3.45;;
5961;SDS011;3007;50.770;0.250;2023-07-13T08:26:50;8.02;;;2.80;;
5961;SDS011;3007;50.770;0.250;2023-07-13T08:29:17;11.35;;;2.70;;
5961;SDS011;3007;50.770;0.250;2023-07-13T08:31:45;10.63;;;3.42;;
5961;SDS011;3007;50.770;0.250;2023-07-13T08:34:12;13.77;;;3.58;;
5961;SDS011;3007;50.770;0.250;2023-07-13T08:36:39;11.20;;;3.00;;
5961;SDS011;3007;50.770;0.250;2023-07-13T08:39:06;11.85;;;2.50;;
5961;SDS011;3007;50.770;0.250;2023-07-13T08:41:33;16.30;;;3.17;;
5961;SDS011;3007;50.770;0.250;2023-07-13T08:44:01;8.88;;;2.53;;
5961;SDS011;3007;50.770;0.250;2023-07-13T08:46:33;11.60;;;2.70;;
5961;SDS011;3007;50.770;0.250;2023-07-13T08:49:05;11.02;;;3.20;;
5961;SDS011;3007;50.770;0.250;2023-07-13T08:51:39;12.40;;;2.95;;
5961;SDS011;3007;50.770;0.250;2023-07-13T08:54:12;9.20;;;2.47;;
5961;SDS011;3007;50.770;0.250;2023-07-13T08:56:47;10.60;;;2.83;;
5961;SDS011;3007;50.770;0.250;2023-07-13T08:59:18;12.23;;;2.92;;
5961;SDS011;3007;50.770;0.250;2023-07-13T09:01:52;8.93;;;2.90;;
5961;SDS011;3007;50.770;0.250;2023-07-13T09:04:40;10.68;;;2.90;;
5961;SDS011;3007;50.770;0.250;2023-07-13T09:07:13;7.97;;;2.63;;
5961;SDS011;3007;50.770;0.250;2023-07-13T09:09:49;17.00;;;3.60;;
5961;SDS011;3007;50.770;0.250;2023-07-13T09:12:32;9.65;;;2.78;;
5961;SDS011;3007;50.770;0.250;2023-07-13T09:15:14;7.38;;;2.58;;
5961;SDS011;3007;50.770;0.250;2023-07-13T09:17:50;13.95;;;3.22;;
5961;SDS011;3007;50.770;0.250;2023-07-13T09:20:24;11.30;;;2.72;;
5961;SDS011;3007;50.770;0.250;2023-07-13T09:22:54;11.02;;;3.03;;
5961;SDS011;3007;50.770;0.250;2023-07-13T09:25:24;9.63;;;2.97;;
5961;SDS011;3007;50.770;0.250;2023-07-13T09:27:57;8.82;;;2.65;;
5961;SDS011;3007;50.770;0.250;2023-07-13T09:30:29;10.88;;;2.60;;
5961;SDS011;3007;50.770;0.250;2023-07-13T09:33:00;9.85;;;2.40;;
5961;SDS011;3007;50.770;0.250;2023-07-13T09:35:28;8.20;;;2.63;;
5961;SDS011;3007;50.770;0.250;2023-07-13T09:38:01;9.70;;;3.13;;
5961;SDS011;3007;50.770;0.250;2023-07-13T09:40:40;7.57;;;2.72;;
5961;SDS011;3007;50.770;0.250;2023-07-13T09:43:34;6.82;;;2.45;;
5961;SDS011;3007;50.770;0.250;2023-07-13T09:46:03;7.72;;;2.30;;
5961;SDS011;3007;50.770;0.250;2023-07-13T09:48:33;8.10;;;2.33;;
5961;SDS011;3007;50.770;0.250;2023-07-13T09:51:11;8.63;;;2.40;;
5961;SDS011;3007;50.770;0.250;2023-07-13T09:53:41;7.90;;;2.35;;
5961;SDS011;3007;50.770;0.250;2023-07-13T09:56:18;6.22;;;2.53;;
5961;SDS011;3007;50.770;0.250;2023-07-13T09:58:46;6.97;;;2.40;;
5961;SDS011;3007;50.770;0.250;2023-07-13T10:01:13;7.78;;;2.22;;
5961;SDS011;3007;50.770;0.250;2023-07-13T10:03:51;9.55;;;2.20;;
5961;SDS011;3007;50.770;0.250;2023-07-13T10:06:20;4.63;;;2.08;;
5961;SDS011;3007;50.770;0.250;2023-07-13T10:08:48;10.23;;;3.00;;
5961;SDS011;3007;50.770;0.250;2023-07-13T10:11:17;8.45;;;2.42;;
5961;SDS011;3007;50.770;0.250;2023-07-13T10:13:49;14.80;;;3.05;;
5961;SDS011;3007;50.770;0.250;2023-07-13T10:16:21;9.10;;;2.47;;
5961;SDS011;3007;50.770;0.250;2023-07-13T10:18:49;7.45;;;2.50;;
5961;SDS011;3007;50.770;0.250;2023-07-13T10:21:22;9.25;;;2.83;;
5961;SDS011;3007;50.770;0.250;2023-07-13T10:23:55;8.27;;;2.22;;
5961;SDS011;3007;50.770;0.250;2023-07-13T10:26:29;7.20;;;2.20;;
5961;SDS011;3007;50.770;0.250;2023-07-13T10:29:00;7.32;;;2.22;;
5961;SDS011;3007;50.770;0.250;2023-07-13T10:31:30;7.63;;;2.17;;
5961;SDS011;3007;50.770;0.250;2023-07-13T10:33:57;8.77;;;2.50;;
5961;SDS011;3007;50.770;0.250;2023-07-13T10:36:31;10.13;;;2.75;;
5961;SDS011;3007;50.770;0.250;2023-07-13T10:39:02;9.85;;;2.35;;
5961;SDS011;3007;50.770;0.250;2023-07-13T10:41:35;9.52;;;2.22;;
5961;SDS011;3007;50.770;0.250;2023-07-13T10:44:06;7.47;;;2.08;;
5961;SDS011;3007;50.770;0.250;2023-07-13T10:46:43;10.43;;;2.60;;
5961;SDS011;3007;50.770;0.250;2023-07-13T10:49:11;8.10;;;2.00;;
5961;SDS011;3007;50.770;0.250;2023-07-13T10:51:40;9.65;;;2.40;;
5961;SDS011;3007;50.770;0.250;2023-07-13T10:54:17;8.93;;;2.60;;
5961;SDS011;3007;50.770;0.250;2023-07-13T10:56:48;6.20;;;2.08;;
5961;SDS011;3007;50.770;0.250;2023-07-13T10:59:17;9.68;;;2.35;;
5961;SDS011;3007;50.770;0.250;2023-07-13T11:01:53;10.00;;;2.33;;
5961;SDS011;3007;50.770;0.250;2023-07-13T11:04:22;7.53;;;2.22;;
5961;SDS011;3007;50.770;0.250;2023-07-13T11:06:57;10.05;;;2.33;;
5961;SDS011;3007;50.770;0.250;2023-07-13T11:09:33;8.10;;;2.35;;
5961;SDS011;3007;50.770;0.250;2023-07-13T11:12:09;9.30;;;2.53;;
5961;SDS011;3007;50.770;0.250;2023-07-13T11:15:01;8.38;;;2.33;;
5961;SDS011;3007;50.770;0.250;2023-07-13T11:17:37;7.57;;;1.92;;
5961;SDS011;3007;50.770;0.250;2023-07-13T11:23:27;8.52;;;2.13;;
5961;SDS011;3007;50.770;0.250;2023-07-13T11:25:59;11.85;;;2.72;;
5961;SDS011;3007;50.770;0.250;2023-07-13T11:28:31;9.32;;;2.63;;
5961;SDS011;3007;50.770;0.250;2023-07-13T11:31:02;8.40;;;2.30;;
5961;SDS011;3007;50.770;0.250;2023-07-13T11:33:55;10.05;;;2.67;;
5961;SDS011;3007;50.770;0.250;2023-07-13T11:36:27;9.15;;;2.17;;
5961;SDS011;3007;50.770;0.250;2023-07-13T11:39:00;10.70;;;2.60;;
5961;SDS011;3007;50.770;0.250;2023-07-13T11:41:35;9.93;;;2.42;;
5961;SDS011;3007;50.770;0.250;2023-07-13T11:44:11;8.57;;;2.20;;
5961;SDS011;3007;50.770;0.250;2023-07-13T11:46:44;13.77;;;2.83;;
5961;SDS011;3007;50.770;0.250;2023-07-13T11:49:16;10.82;;;2.30;;
5961;SDS011;3007;50.770;0.250;2023-07-13T11:51:44;12.25;;;3.20;;
5961;SDS011;3007;50.770;0.250;2023-07-13T11:54:19;6.18;;;2.10;;
5961;SDS011;3007;50.770;0.250;2023-07-13T11:56:53;5.30;;;1.80;;
5961;SDS011;3007;50.770;0.250;2023-07-13T11:59:21;7.30;;;2.22;;
5961;SDS011;3007;50.770;0.250;2023-07-13T12:01:49;8.35;;;2.60;;
5961;SDS011;3007;50.770;0.250;2023-07-13T12:04:22;6.65;;;2.38;;
5961;SDS011;3007;50.770;0.250;2023-07-13T12:06:55;7.75;;;2.22;;
5961;SDS011;3007;50.770;0.250;2023-07-13T12:09:27;11.43;;;2.50;;
5961;SDS011;3007;50.770;0.250;2023-07-13T12:11:56;12.15;;;2.35;;
5961;SDS011;3007;50.770;0.250;2023-07-13T12:14:25;9.15;;;2.40;;
5961;SDS011;3007;50.770;0.250;2023-07-13T12:16:52;11.02;;;3.30;;
5961;SDS011;3007;50.770;0.250;2023-07-13T12:19:20;7.70;;;2.15;;
5961;SDS011;3007;50.770;0.250;2023-07-13T12:21:49;9.85;;;2.78;;
5961;SDS011;3007;50.770;0.250;2023-07-13T12:24:19;10.27;;;2.47;;
5961;SDS011;3007;50.770;0.250;2023-07-13T12:26:54;7.18;;;2.60;;
5961;SDS011;3007;50.770;0.250;2023-07-13T12:29:24;9.63;;;2.85;;
5961;SDS011;3007;50.770;0.250;2023-07-13T12:31:51;7.72;;;2.25;;
5961;SDS011;3007;50.770;0.250;2023-07-13T12:34:19;8.82;;;2.20;;
5961;SDS011;3007;50.770;0.250;2023-07-13T12:36:49;10.82;;;2.38;;
5961;SDS011;3007;50.770;0.250;2023-07-13T12:39:19;9.07;;;2.78;;
5961;SDS011;3007;50.770;0.250;2023-07-13T12:41:51;9.63;;;2.85;;
5961;SDS011;3007;50.770;0.250;2023-07-13T12:44:35;8.40;;;2.60;;
5961;SDS011;3007;50.770;0.250;2023-07-13T12:47:11;11.63;;;2.35;;
5961;SDS011;3007;50.770;0.250;2023-07-13T12:49:41;11.65;;;3.00;;
5961;SDS011;3007;50.770;0.250;2023-07-13T12:52:16;7.43;;;2.28;;
5961;SDS011;3007;50.770;0.250;2023-07-13T12:54:54;6.57;;;2.08;;
5961;SDS011;3007;50.770;0.250;2023-07-13T12:57:24;7.90;;;2.20;;
5961;SDS011;3007;50.770;0.250;2023-07-13T12:59:52;7.68;;;2.20;;
5961;SDS011;3007;50.770;0.250;2023-07-13T13:02:23;5.32;;;2.28;;
5961;SDS011;3007;50.770;0.250;2023-07-13T13:04:56;11.57;;;2.95;;
5961;SDS011;3007;50.770;0.250;2023-07-13T13:07:24;8.95;;;2.60;;
5961;SDS011;3007;50.770;0.250;2023-07-13T13:09:51;9.70;;;2.78;;
5961;SDS011;3007;50.770;0.250;2023-07-13T13:12:20;8.35;;;2.60;;
5961;SDS011;3007;50.770;0.250;2023-07-13T13:14:48;13.50;;;3.47;;
5961;SDS011;3007;50.770;0.250;2023-07-13T13:17:17;10.23;;;2.45;;
5961;SDS011;3007;50.770;0.250;2023-07-13T13:19:46;9.93;;;3.58;;
5961;SDS011;3007;50.770;0.250;2023-07-13T13:22:13;7.32;;;2.63;;
5961;SDS011;3007;50.770;0.250;2023-07-13T13:24:40;7.60;;;2.42;;
5961;SDS011;3007;50.770;0.250;2023-07-13T13:27:09;8.15;;;2.53;;
5961;SDS011;3007;50.770;0.250;2023-07-13T13:29:42;6.90;;;2.33;;
5961;SDS011;3007;50.770;0.250;2023-07-13T13:32:11;12.30;;;2.90;;
5961;SDS011;3007;50.770;0.250;2023-07-13T13:34:39;8.63;;;2.97;;
5961;SDS011;3007;50.770;0.250;2023-07-13T13:37:09;10.77;;;3.13;;
5961;SDS011;3007;50.770;0.250;2023-07-13T13:39:44;10.50;;;2.75;;
5961;SDS011;3007;50.770;0.250;2023-07-13T13:42:12;10.43;;;3.25;;
5961;SDS011;3007;50.770;0.250;2023-07-13T13:44:40;9.48;;;2.78;;
5961;SDS011;3007;50.770;0.250;2023-07-13T13:47:19;8.73;;;2.63;;
5961;SDS011;3007;50.770;0.250;2023-07-13T13:49:55;8.50;;;2.63;;
5961;SDS011;3007;50.770;0.250;2023-07-13T13:52:22;10.90;;;2.97;;
5961;SDS011;3007;50.770;0.250;2023-07-13T13:54:50;8.85;;;2.53;;
5961;SDS011;3007;50.770;0.250;2023-07-13T13:57:20;7.00;;;2.35;;
5961;SDS011;3007;50.770;0.250;2023-07-13T13:59:49;6.70;;;2.35;;
5961;SDS011;3007;50.770;0.250;2023-07-13T14:02:21;7.68;;;2.20;;
5961;SDS011;3007;50.770;0.250;2023-07-13T14:04:50;7.75;;;2.30;;
5961;SDS011;3007;50.770;0.250;2023-07-13T14:07:21;5.20;;;2.33;;
5961;SDS011;3007;50.770;0.250;2023-07-13T14:09:48;7.75;;;2.10;;
5961;SDS011;3007;50.770;0.250;2023-07-13T14:12:15;6.25;;;2.33;;
5961;SDS011;3007;50.770;0.250;2023-07-13T14:14:42;7.07;;;2.50;;
5961;SDS011;3007;50.770;0.250;2023-07-13T14:17:15;4.20;;;2.22;;
5961;SDS011;3007;50.770;0.250;2023-07-13T14:19:49;4.93;;;2.05;;
5961;SDS011;3007;50.770;0.250;2023-07-13T14:22:21;3.65;;;2.15;;
5961;SDS011;3007;50.770;0.250;2023-07-13T14:24:49;4.95;;;1.90;;
5961;SDS011;3007;50.770;0.250;2023-07-13T14:27:18;6.25;;;2.20;;
5961;SDS011;3007;50.770;0.250;2023-07-13T14:29:45;4.80;;;2.08;;
5961;SDS011;3007;50.770;0.250;2023-07-13T14:32:12;5.90;;;2.33;;
5961;SDS011;3007;50.770;0.250;2023-07-13T14:34:40;6.55;;;1.98;;
5961;SDS011;3007;50.770;0.250;2023-07-13T14:37:11;8.95;;;2.65;;
5961;SDS011;3007;50.770;0.250;2023-07-13T14:39:41;7.20;;;2.03;;
5961;SDS011;3007;50.770;0.250;2023-07-13T14:42:10;7.55;;;2.35;;
5961;SDS011;3007;50.770;0.250;2023-07-13T14:44:37;7.90;;;2.22;;
5961;SDS011;3007;50.770;0.250;2023-07-13T14:47:05;7.78;;;2.42;;
5961;SDS011;3007;50.770;0.250;2023-07-13T14:49:41;5.03;;;2.10;;
5961;SDS011;3007;50.770;0.250;2023-07-13T14:52:13;9.18;;;2.47;;
5961;SDS011;3007;50.770;0.250;2023-07-13T14:54:45;7.28;;;2.40;;
5961;SDS011;3007;50.770;0.250;2023-07-13T14:57:12;7.97;;;2.28;;
5961;SDS011;3007;50.770;0.250;2023-07-13T14:59:40;6.70;;;2.28;;
5961;SDS011;3007;50.770;0.250;2023-07-13T15:02:17;6.90;;;2.58;;
5961;SDS011;3007;50.770;0.250;2023-07-13T15:04:50;8.50;;;2.60;;
5961;SDS011;3007;50.770;0.250;2023-07-13T15:07:19;5.78;;;2.30;;
5961;SDS011;3007;50.770;0.250;2023-07-13T15:09:48;5.97;;;2.45;;
5961;SDS011;3007;50.770;0.250;2023-07-13T15:12:15;7.88;;;2.20;;
5961;SDS011;3007;50.770;0.250;2023-07-13T15:14:42;6.35;;;2.20;;
5961;SDS011;3007;50.770;0.250;2023-07-13T15:17:22;6.90;;;2.25;;
5961;SDS011;3007;50.770;0.250;2023-07-13T15:19:55;5.78;;;2.30;;
5961;SDS011;3007;50.770;0.250;2023-07-13T15:22:22;5.53;;;2.40;;
5961;SDS011;3007;50.770;0.250;2023-07-13T15:24:49;10.10;;;2.80;;
5961;SDS011;3007;50.770;0.250;2023-07-13T15:27:16;7.35;;;2.45;;